createdAt,value
2023-01-04T00:01:23.273Z,6.50
2023-01-04T00:03:51.153Z,6.50
2023-01-04T00:06:19.387Z,6.40
2023-01-04T00:08:47.052Z,6.30
2023-01-04T00:11:20.498Z,6.30
2023-01-04T00:13:49.588Z,6.20
2023-01-04T00:16:20.268Z,6.10
2023-01-04T00:18:47.897Z,6.10
2023-01-04T00:21:20.991Z,6.00
2023-01-04T00:23:50.673Z,6.10
2023-01-04T00:26:24.023Z,6.00
2023-01-04T00:29:09.563Z,6.00
2023-01-04T00:31:37.089Z,6.10
2023-01-04T00:34:05.652Z,6.10
2023-01-04T00:36:33.962Z,6.10
2023-01-04T00:39:09.695Z,6.10
2023-01-04T00:44:27.300Z,6.10
2023-01-04T00:46:54.904Z,6.10
2023-01-04T00:49:22.375Z,6.00
2023-01-04T00:51:49.918Z,6.00
2023-01-04T00:54:17.924Z,6.00
2023-01-04T00:56:45.696Z,5.90
2023-01-04T00:59:15.171Z,5.90
2023-01-04T01:01:43.802Z,5.80
2023-01-04T01:04:15.957Z,5.70
2023-01-04T01:06:43.766Z,5.70
2023-01-04T01:09:11.701Z,5.70
2023-01-04T01:11:40.176Z,5.60
2023-01-04T01:14:11.363Z,5.60
2023-01-04T01:16:54.382Z,5.60
2023-01-04T01:19:24.528Z,5.50
2023-01-04T01:21:51.869Z,5.50
2023-01-04T01:24:20.265Z,5.40
2023-01-04T01:26:48.665Z,5.40
2023-01-04T01:29:15.935Z,5.30
2023-01-04T01:31:43.428Z,5.30
2023-01-04T01:34:10.960Z,5.20
2023-01-04T01:36:38.453Z,5.20
2023-01-04T01:39:06.317Z,5.20
2023-01-04T01:41:35.311Z,5.20
2023-01-04T01:44:04.312Z,5.10
2023-01-04T01:46:31.710Z,5.10
2023-01-04T01:49:04.789Z,5.10
2023-01-04T01:51:33.906Z,5.10
2023-01-04T01:54:10.134Z,5.10
2023-01-04T01:56:39.748Z,5.00
2023-01-04T01:59:09.512Z,5.10
2023-01-04T02:01:37.027Z,5.00
2023-01-04T02:04:05.336Z,5.10
2023-01-04T02:06:43.784Z,5.10
2023-01-04T02:09:12.661Z,5.10
2023-01-04T02:11:40.385Z,5.10
2023-01-04T02:14:27.339Z,5.10
2023-01-04T02:17:12.883Z,5.20
2023-01-04T02:20:02.816Z,5.20
2023-01-04T02:23:18.875Z,5.20
2023-01-04T02:26:23.817Z,5.30
2023-01-04T02:29:32.867Z,5.30
2023-01-04T02:32:17.495Z,5.40
2023-01-04T02:34:59.020Z,5.40
2023-01-04T02:37:42.056Z,5.40
2023-01-04T02:40:27.985Z,5.40
2023-01-04T02:43:42.506Z,5.40
2023-01-04T02:46:23.199Z,5.40
2023-01-04T02:49:09.428Z,5.40
2023-01-04T02:51:38.347Z,5.40
2023-01-04T02:54:22.535Z,5.40
2023-01-04T02:57:07.445Z,5.40
2023-01-04T03:00:10.817Z,5.40
2023-01-04T03:03:15.115Z,5.40
2023-01-04T03:06:16.406Z,5.40
2023-01-04T03:09:07.830Z,5.40
2023-01-04T03:12:02.616Z,5.30
2023-01-04T03:14:37.010Z,5.30
2023-01-04T03:17:11.542Z,5.20
2023-01-04T03:19:57.481Z,5.20
2023-01-04T03:22:57.644Z,5.10
2023-01-04T03:25:49.895Z,5.10
2023-01-04T03:28:38.241Z,5.10
2023-01-04T03:31:36.829Z,5.10
2023-01-04T03:34:23.798Z,5.10
2023-01-04T03:37:18.345Z,5.00
2023-01-04T03:40:23.956Z,5.00
2023-01-04T03:43:20.895Z,5.00
2023-01-04T03:46:17.305Z,5.00
2023-01-04T03:49:09.355Z,4.90
2023-01-04T03:51:37.968Z,4.90
2023-01-04T03:54:18.686Z,4.80
2023-01-04T03:56:47.674Z,4.80
2023-01-04T03:59:15.240Z,4.80
2023-01-04T04:01:43.996Z,4.80
2023-01-04T04:04:30.378Z,4.80
2023-01-04T04:07:16.400Z,4.80
2023-01-04T04:09:43.628Z,4.90
2023-01-04T04:12:10.982Z,4.90
2023-01-04T04:14:38.216Z,5.00
2023-01-04T04:17:05.662Z,4.90
2023-01-04T04:19:33.041Z,5.00
2023-01-04T04:22:00.475Z,5.00
2023-01-04T04:24:27.853Z,5.10
2023-01-04T04:26:56.151Z,5.10
2023-01-04T04:29:24.551Z,5.10
2023-01-04T04:31:52.176Z,5.10
2023-01-04T04:34:19.691Z,5.00
2023-01-04T04:36:47.028Z,5.00
2023-01-04T04:39:14.343Z,5.00
2023-01-04T04:41:42.063Z,5.00
2023-01-04T04:44:15.143Z,5.00
2023-01-04T04:46:43.591Z,5.00
2023-01-04T04:49:11.189Z,5.00
2023-01-04T04:51:38.600Z,4.90
2023-01-04T04:54:07.688Z,4.90
2023-01-04T04:56:37.072Z,4.90
2023-01-04T04:59:05.010Z,4.90
2023-01-04T05:01:32.661Z,4.80
2023-01-04T05:04:00.219Z,4.80
2023-01-04T05:06:28.253Z,4.80
2023-01-04T05:08:55.778Z,4.80
2023-01-04T05:11:41.963Z,4.70
2023-01-04T05:14:10.398Z,4.70
2023-01-04T05:16:37.881Z,4.70
2023-01-04T05:19:05.251Z,4.70
2023-01-04T05:21:32.863Z,4.70
2023-01-04T05:24:00.399Z,4.80
2023-01-04T05:26:27.789Z,4.80
2023-01-04T05:28:55.383Z,4.70
2023-01-04T05:31:23.173Z,4.80
2023-01-04T05:33:50.571Z,4.80
2023-01-04T05:36:18.051Z,4.70
2023-01-04T05:38:45.474Z,4.70
2023-01-04T05:41:31.296Z,4.70
2023-01-04T05:43:58.920Z,4.70
2023-01-04T05:46:26.332Z,4.70
2023-01-04T05:48:53.751Z,4.70
2023-01-04T05:51:21.139Z,4.80
2023-01-04T05:53:48.475Z,4.80
2023-01-04T05:56:15.849Z,4.80
2023-01-04T05:58:43.210Z,4.80
2023-01-04T06:01:10.770Z,4.90
2023-01-04T06:03:38.379Z,4.90
2023-01-04T06:06:06.198Z,4.90
2023-01-04T06:08:33.540Z,4.90
2023-01-04T06:11:00.925Z,5.00
2023-01-04T06:13:28.428Z,5.00
2023-01-04T06:15:55.786Z,5.10
2023-01-04T06:18:23.156Z,5.10
2023-01-04T06:20:51.592Z,5.10
2023-01-04T06:23:18.942Z,5.10
2023-01-04T06:25:46.396Z,5.10
2023-01-04T06:28:13.849Z,5.10
2023-01-04T06:30:41.266Z,5.20
2023-01-04T06:33:08.693Z,5.20
2023-01-04T06:35:36.177Z,5.30
2023-01-04T06:38:03.536Z,5.30
2023-01-04T06:40:30.987Z,5.30
2023-01-04T06:42:58.219Z,5.30
2023-01-04T06:45:25.889Z,5.40
2023-01-04T06:47:53.401Z,5.40
2023-01-04T06:50:20.949Z,5.40
2023-01-04T06:52:48.249Z,5.40
2023-01-04T06:55:15.674Z,5.50
2023-01-04T06:57:43.064Z,5.50
2023-01-04T07:00:11.251Z,5.50
2023-01-04T07:02:39.008Z,5.50
2023-01-04T07:05:26.332Z,5.50
2023-01-04T07:07:53.701Z,5.60
2023-01-04T07:10:21.229Z,5.70
2023-01-04T07:12:48.585Z,5.70
2023-01-04T07:15:43.259Z,5.70
2023-01-04T07:18:03.501Z,5.80
2023-01-04T07:20:30.970Z,5.80
2023-01-04T07:22:58.415Z,5.90
2023-01-04T07:25:25.797Z,5.90
2023-01-04T07:27:54.632Z,6.00
2023-01-04T07:30:23.693Z,6.00
2023-01-04T07:32:54.849Z,6.00
2023-01-04T07:35:23.481Z,6.00
2023-01-04T07:37:57.831Z,6.10
2023-01-04T07:40:27.696Z,6.10
2023-01-04T07:42:57.501Z,6.20
2023-01-04T07:45:25.578Z,6.20
2023-01-04T07:47:52.966Z,6.30
2023-01-04T07:50:20.325Z,6.30
2023-01-04T07:52:48.008Z,6.40
2023-01-04T07:55:15.486Z,6.40
2023-01-04T07:57:43.101Z,6.40
2023-01-04T08:00:11.661Z,6.50
2023-01-04T08:02:42.228Z,6.50
2023-01-04T08:05:09.798Z,6.50
2023-01-04T08:07:37.681Z,6.60
2023-01-04T08:10:05.733Z,6.60
2023-01-04T08:12:33.091Z,6.70
2023-01-04T08:15:01.192Z,6.70
2023-01-04T08:17:28.655Z,6.70
2023-01-04T08:19:56.027Z,6.80
2023-01-04T08:22:23.406Z,6.90
2023-01-04T08:24:50.755Z,6.90
2023-01-04T08:27:18.191Z,6.90
2023-01-04T08:29:45.565Z,6.90
2023-01-04T08:32:12.978Z,6.90
2023-01-04T08:34:40.518Z,6.90
2023-01-04T08:37:07.866Z,6.90
2023-01-04T08:39:36.172Z,7.00
2023-01-04T08:42:18.711Z,7.00
2023-01-04T08:44:47.957Z,7.00
2023-01-04T08:47:15.171Z,7.10
2023-01-04T08:49:42.890Z,7.10
2023-01-04T08:52:11.697Z,7.10
2023-01-04T08:54:39.064Z,7.10
2023-01-04T08:57:06.312Z,7.20
2023-01-04T08:59:33.801Z,7.20
2023-01-04T09:02:05.143Z,7.20
2023-01-04T09:04:33.346Z,7.30
2023-01-04T09:07:00.658Z,7.30
2023-01-04T09:09:29.941Z,7.30
2023-01-04T09:11:57.330Z,7.40
2023-01-04T09:14:24.521Z,7.50
2023-01-04T09:16:51.939Z,7.50
2023-01-04T09:19:22.261Z,7.60
2023-01-04T09:21:50.467Z,7.60
2023-01-04T09:24:17.991Z,7.70
2023-01-04T09:26:47.357Z,7.70
2023-01-04T09:29:14.860Z,7.80
2023-01-04T09:31:42.372Z,7.80
2023-01-04T09:34:15.109Z,7.90
2023-01-04T09:36:46.047Z,7.90
2023-01-04T09:39:21.821Z,8.00
2023-01-04T09:42:05.218Z,8.00
2023-01-04T09:47:43.409Z,8.10
2023-01-04T09:50:54.692Z,8.10
2023-01-04T09:53:28.479Z,8.20
2023-01-04T09:56:09.933Z,8.20
2023-01-04T09:58:40.564Z,8.30
2023-01-04T10:01:21.347Z,8.30
2023-01-04T10:04:09.516Z,8.40
2023-01-04T10:06:37.700Z,8.40
2023-01-04T10:09:11.786Z,8.50
2023-01-04T10:12:03.772Z,8.60
2023-01-04T10:14:47.838Z,8.60
2023-01-04T10:18:13.586Z,8.70
2023-01-04T10:23:33.600Z,8.80
2023-01-04T10:26:10.458Z,8.90
2023-01-04T10:29:18.586Z,8.90
2023-01-04T10:31:55.320Z,9.00
2023-01-04T10:34:33.046Z,9.10
2023-01-04T10:37:11.343Z,9.10
2023-01-04T10:39:38.864Z,9.20
2023-01-04T10:42:32.980Z,9.20
2023-01-04T10:45:17.745Z,9.20
2023-01-04T10:48:05.393Z,9.30
2023-01-04T10:51:02.137Z,9.30
2023-01-04T10:54:25.999Z,9.30
2023-01-04T10:57:12.531Z,9.40
2023-01-04T10:59:46.268Z,9.40
2023-01-04T11:02:40.247Z,9.50
2023-01-04T11:05:20.743Z,9.50
2023-01-04T11:07:55.633Z,9.50
2023-01-04T11:10:28.904Z,9.50
2023-01-04T11:12:56.478Z,9.60
2023-01-04T11:15:23.951Z,9.60
2023-01-04T11:17:52.029Z,9.60
2023-01-04T11:20:21.723Z,9.60
2023-01-04T11:22:58.967Z,9.60
2023-01-04T11:25:36.450Z,9.70
2023-01-04T11:28:23.410Z,9.60
2023-01-04T11:31:14.393Z,9.60
2023-01-04T11:34:01.415Z,9.70
2023-01-04T11:36:31.463Z,9.70
2023-01-04T11:38:59.250Z,9.70
2023-01-04T11:41:27.631Z,9.70
2023-01-04T11:44:00.630Z,9.70
2023-01-04T11:46:29.145Z,9.70
2023-01-04T11:48:57.424Z,9.70
2023-01-04T11:51:28.704Z,9.70
2023-01-04T11:53:58.563Z,9.70
2023-01-04T11:56:30.575Z,9.70
2023-01-04T11:59:09.227Z,9.70
2023-01-04T12:01:45.447Z,9.70
2023-01-04T12:04:20.888Z,9.70
2023-01-04T12:07:02.934Z,9.70
2023-01-04T12:09:30.988Z,9.70
2023-01-04T12:12:01.472Z,9.70
2023-01-04T12:14:32.543Z,9.70
2023-01-04T12:17:13.678Z,9.70
2023-01-04T12:19:42.380Z,9.70
2023-01-04T12:22:32.684Z,9.70
2023-01-04T12:25:01.999Z,9.70
2023-01-04T12:27:29.714Z,9.70
2023-01-04T12:30:02.354Z,9.70
2023-01-04T12:32:32.847Z,9.70
2023-01-04T12:35:00.140Z,9.70
2023-01-04T12:37:49.652Z,9.70
2023-01-04T12:40:49.821Z,9.70
2023-01-04T12:43:17.307Z,9.80
2023-01-04T12:46:08.510Z,9.80
2023-01-04T12:48:55.088Z,9.90
2023-01-04T12:51:34.332Z,9.90
2023-01-04T12:54:04.491Z,9.90
2023-01-04T12:57:16.173Z,9.90
2023-01-04T13:00:03.518Z,10.00
2023-01-04T13:02:34.857Z,10.00
2023-01-04T13:05:54.066Z,10.00
2023-01-04T13:08:15.066Z,10.00
2023-01-04T13:10:48.902Z,10.00
2023-01-04T13:13:28.793Z,10.00
2023-01-04T13:16:11.768Z,10.00
2023-01-04T13:18:58.025Z,10.10
2023-01-04T13:21:34.765Z,10.10
2023-01-04T13:24:26.030Z,10.20
2023-01-04T13:26:54.525Z,10.20
2023-01-04T13:29:29.930Z,10.30
2023-01-04T13:32:19.694Z,10.30
2023-01-04T13:34:52.275Z,10.30
2023-01-04T13:37:28.225Z,10.40
2023-01-04T13:40:09.226Z,10.40
2023-01-04T13:42:39.619Z,10.40
2023-01-04T13:45:21.411Z,10.40
2023-01-04T13:47:52.212Z,10.50
2023-01-04T13:50:31.585Z,10.50
2023-01-04T13:53:06.981Z,10.60
2023-01-04T13:55:37.563Z,10.60
2023-01-04T13:58:18.398Z,10.60
2023-01-04T14:01:21.157Z,10.70
2023-01-04T14:04:02.164Z,10.70
2023-01-04T14:06:33.412Z,10.70
2023-01-04T14:09:15.660Z,10.70
2023-01-04T14:12:06.706Z,10.70
2023-01-04T14:14:40.973Z,10.70
2023-01-04T14:17:41.673Z,10.80
2023-01-04T14:20:12.707Z,10.80
2023-01-04T14:22:46.004Z,10.80
2023-01-04T14:25:34.270Z,10.80
2023-01-04T14:28:24.716Z,10.80
2023-01-04T14:31:04.522Z,10.90
2023-01-04T14:33:45.376Z,10.90
2023-01-04T14:36:19.583Z,10.90
2023-01-04T14:38:58.277Z,11.00
2023-01-04T14:41:32.989Z,11.00
2023-01-04T14:44:02.446Z,11.10
2023-01-04T14:46:31.683Z,11.10
2023-01-04T14:48:59.944Z,11.10
2023-01-04T14:51:38.510Z,11.20
2023-01-04T14:54:06.920Z,11.20
2023-01-04T14:56:34.864Z,11.20
2023-01-04T14:59:02.407Z,11.20
2023-01-04T15:01:30.117Z,11.20
2023-01-04T15:03:58.578Z,11.20
2023-01-04T15:06:26.554Z,11.20
2023-01-04T15:08:54.050Z,11.20
2023-01-04T15:11:21.574Z,11.20
2023-01-04T15:13:49.178Z,11.20
2023-01-04T15:16:18.840Z,11.20
2023-01-04T15:18:46.802Z,11.20
2023-01-04T15:21:14.831Z,11.20
2023-01-04T15:23:42.265Z,11.20
2023-01-04T15:26:11.718Z,11.20
2023-01-04T15:28:39.265Z,11.20
2023-01-04T15:31:11.599Z,11.20
2023-01-04T15:33:39.502Z,11.20
2023-01-04T15:36:10.752Z,11.20
2023-01-04T15:38:38.379Z,11.20
2023-01-04T15:41:08.505Z,11.20
2023-01-04T15:43:37.102Z,11.10
2023-01-04T15:46:09.201Z,11.10
2023-01-04T15:48:37.105Z,11.10
2023-01-04T15:51:07.786Z,11.10
2023-01-04T15:53:35.704Z,11.10
2023-01-04T15:56:11.589Z,11.10
2023-01-04T15:58:39.514Z,11.10
2023-01-04T16:01:09.402Z,11.10
2023-01-04T16:03:37.404Z,11.10
2023-01-04T16:06:10.434Z,11.10
2023-01-04T16:08:37.839Z,11.10
2023-01-04T16:11:16.639Z,11.10
2023-01-04T16:13:49.057Z,11.00
2023-01-04T16:16:18.113Z,11.10
2023-01-04T16:18:47.550Z,11.10
2023-01-04T16:21:17.938Z,11.10
2023-01-04T16:23:49.918Z,11.10
2023-01-04T16:26:17.414Z,11.10
2023-01-04T16:28:53.613Z,11.10
2023-01-04T16:31:22.406Z,11.10
2023-01-04T16:33:53.845Z,11.10
2023-01-04T16:36:21.422Z,11.10
2023-01-04T16:38:48.968Z,11.10
2023-01-04T16:41:20.745Z,11.10
2023-01-04T16:43:51.010Z,11.10
2023-01-04T16:46:22.040Z,11.10
2023-01-04T16:48:52.595Z,11.10
2023-01-04T16:51:21.075Z,11.10
2023-01-04T16:53:48.932Z,11.10
2023-01-04T16:56:18.533Z,11.10
2023-01-04T16:58:48.118Z,11.10
2023-01-04T17:01:22.685Z,11.10
2023-01-04T17:03:54.556Z,11.10
2023-01-04T17:06:24.353Z,11.10
2023-01-04T17:08:54.160Z,11.10
2023-01-04T17:14:13.667Z,11.10
2023-01-04T17:16:42.135Z,11.10
2023-01-04T17:19:09.812Z,11.10
2023-01-04T17:21:37.270Z,11.10
2023-01-04T17:24:04.869Z,11.10
2023-01-04T17:26:33.036Z,11.10
2023-01-04T17:29:01.459Z,11.10
2023-01-04T17:31:34.743Z,11.10
2023-01-04T17:34:02.844Z,11.10
2023-01-04T17:36:30.319Z,11.20
2023-01-04T17:39:00.523Z,11.20
2023-01-04T17:41:29.523Z,11.20
2023-01-04T17:44:02.609Z,11.20
2023-01-04T17:46:32.994Z,11.20
2023-01-04T17:49:31.822Z,11.20
2023-01-04T17:51:59.948Z,11.20
2023-01-04T17:54:27.467Z,11.20
2023-01-04T17:56:54.793Z,11.20
2023-01-04T17:59:22.151Z,11.30
2023-01-04T18:01:49.716Z,11.30
2023-01-04T18:04:17.091Z,11.30
2023-01-04T18:06:44.422Z,11.30
2023-01-04T18:09:15.487Z,11.30
2023-01-04T18:11:45.934Z,11.30
2023-01-04T18:14:14.657Z,11.30
2023-01-04T18:16:58.421Z,11.30
2023-01-04T18:19:28.551Z,11.30
2023-01-04T18:21:56.688Z,11.30
2023-01-04T18:24:35.955Z,11.30
2023-01-04T18:27:21.527Z,11.30
2023-01-04T18:29:51.410Z,11.30
2023-01-04T18:32:19.101Z,11.40
2023-01-04T18:34:46.336Z,11.40
2023-01-04T18:37:15.833Z,11.40
2023-01-04T18:39:43.604Z,11.40
2023-01-04T18:42:11.043Z,11.40
2023-01-04T18:44:45.695Z,11.40
2023-01-04T18:47:15.956Z,11.40
2023-01-04T18:49:43.389Z,11.40
2023-01-04T18:52:10.966Z,11.40
2023-01-04T18:54:38.182Z,11.40
2023-01-04T18:57:05.671Z,11.50
2023-01-04T18:59:33.107Z,11.50
2023-01-04T19:02:01.540Z,11.50
2023-01-04T19:04:30.947Z,11.50
2023-01-04T19:06:58.795Z,11.50
2023-01-04T19:09:26.336Z,11.50
2023-01-04T19:11:53.688Z,11.50
2023-01-04T19:14:21.102Z,11.50
2023-01-04T19:16:48.916Z,11.60
2023-01-04T19:19:16.385Z,11.60
2023-01-04T19:21:43.859Z,11.60
2023-01-04T19:24:11.104Z,11.60
2023-01-04T19:26:39.055Z,11.70
2023-01-04T19:29:08.443Z,11.70
2023-01-04T19:31:36.126Z,11.70
2023-01-04T19:34:03.992Z,11.70
2023-01-04T19:36:31.450Z,11.70
2023-01-04T19:38:58.949Z,11.70
2023-01-04T19:41:33.917Z,11.70
2023-01-04T19:44:06.676Z,11.70
2023-01-04T19:46:34.405Z,11.70
2023-01-04T19:49:02.006Z,11.80
2023-01-04T19:51:29.350Z,11.80
2023-01-04T19:53:56.741Z,11.70
2023-01-04T19:56:24.247Z,11.80
2023-01-04T19:58:51.867Z,11.80
2023-01-04T20:01:21.635Z,11.80
2023-01-04T20:03:49.352Z,11.90
2023-01-04T20:06:18.610Z,11.80
2023-01-04T20:08:46.111Z,11.80
2023-01-04T20:11:13.570Z,11.80
2023-01-04T20:13:41.231Z,11.80
2023-01-04T20:16:08.978Z,11.80
2023-01-04T20:18:37.127Z,11.80
2023-01-04T20:21:10.499Z,11.80
2023-01-04T20:23:38.584Z,11.80
2023-01-04T20:26:11.478Z,11.80
2023-01-04T20:28:41.727Z,11.80
2023-01-04T20:31:11.504Z,11.80
2023-01-04T20:33:39.223Z,11.90
2023-01-04T20:36:09.386Z,11.90
2023-01-04T20:38:40.123Z,11.90
2023-01-04T20:41:10.392Z,11.90
2023-01-04T20:43:37.686Z,11.90
2023-01-04T20:46:11.267Z,11.90
2023-01-04T20:48:39.240Z,11.90
2023-01-04T20:51:13.601Z,11.90
2023-01-04T20:53:41.688Z,11.80
2023-01-04T20:56:21.148Z,11.90
2023-01-04T20:58:49.429Z,11.90
2023-01-04T21:01:18.301Z,11.90
2023-01-04T21:03:46.198Z,11.90
2023-01-04T21:06:16.276Z,11.90
2023-01-04T21:08:44.419Z,11.90
2023-01-04T21:11:13.048Z,11.90
2023-01-04T21:13:40.753Z,11.90
2023-01-04T21:16:08.438Z,11.90
2023-01-04T21:18:37.061Z,12.00
2023-01-04T21:21:06.325Z,11.90
2023-01-04T21:23:34.007Z,12.00
2023-01-04T21:26:06.940Z,12.00
2023-01-04T21:28:35.418Z,12.00
2023-01-04T21:31:08.286Z,12.00
2023-01-04T21:33:35.570Z,12.00
2023-01-04T21:36:11.253Z,12.00
2023-01-04T21:38:38.682Z,12.00
2023-01-04T21:41:08.718Z,12.00
2023-01-04T21:43:37.163Z,12.00
2023-01-04T21:46:10.767Z,12.10
2023-01-04T21:48:38.354Z,12.10
2023-01-04T21:51:06.498Z,12.10
2023-01-04T21:53:35.652Z,12.10
2023-01-04T21:56:12.194Z,12.10
2023-01-04T21:58:40.317Z,12.10
2023-01-04T22:01:11.282Z,12.10
2023-01-04T22:03:38.972Z,12.20
2023-01-04T22:06:07.141Z,12.20
2023-01-04T22:08:35.078Z,12.20
2023-01-04T22:11:03.784Z,12.20
2023-01-04T22:13:31.383Z,12.20
2023-01-04T22:15:59.057Z,12.20
2023-01-04T22:18:26.523Z,12.20
2023-01-04T22:21:02.659Z,12.20
2023-01-04T22:23:31.646Z,12.20
2023-01-04T22:25:59.782Z,12.20
2023-01-04T22:28:33.110Z,12.20
2023-01-04T22:31:09.928Z,12.20
2023-01-04T22:33:38.197Z,12.20
2023-01-04T22:36:17.060Z,12.20
2023-01-04T22:38:49.850Z,12.20
2023-01-04T22:41:19.284Z,12.20
2023-01-04T22:43:47.366Z,12.20
2023-01-04T22:46:17.764Z,12.20
2023-01-04T22:48:45.835Z,12.20
2023-01-04T22:51:15.681Z,12.30
2023-01-04T22:53:44.217Z,12.30
2023-01-04T22:56:19.431Z,12.30
2023-01-04T22:58:54.526Z,12.30
2023-01-04T23:01:28.435Z,12.30
2023-01-04T23:03:57.760Z,12.30
2023-01-04T23:06:27.172Z,12.30
2023-01-04T23:09:01.127Z,12.30
2023-01-04T23:11:31.159Z,12.30
2023-01-04T23:13:59.082Z,12.30
2023-01-04T23:16:32.284Z,12.30
2023-01-04T23:19:02.241Z,12.20
2023-01-04T23:21:30.521Z,12.30
2023-01-04T23:23:58.271Z,12.30
2023-01-04T23:26:27.386Z,12.30
2023-01-04T23:28:55.053Z,12.30
2023-01-04T23:31:24.834Z,12.40
2023-01-04T23:33:54.367Z,12.40
2023-01-04T23:36:33.011Z,12.30
2023-01-04T23:39:02.686Z,12.40
2023-01-04T23:41:45.609Z,12.40
2023-01-04T23:44:20.260Z,12.40
2023-01-04T23:46:52.201Z,12.40
2023-01-04T23:49:19.405Z,12.40
2023-01-04T23:51:46.596Z,12.40
2023-01-04T23:54:14.225Z,12.50
2023-01-04T23:56:41.513Z,12.50
2023-01-04T23:59:09.313Z,12.50
